createdAt,value
2019-02-11T00:02:07.461Z,5.60
2019-02-11T00:04:36.741Z,13.40
2019-02-11T00:07:05.989Z,6.50
2019-02-11T00:09:35.233Z,13.38
2019-02-11T00:12:04.571Z,8.35
2019-02-11T00:14:33.808Z,7.40
2019-02-11T00:17:03.061Z,17.25
2019-02-11T00:19:32.280Z,2.98
2019-02-11T00:22:01.538Z,8.10
2019-02-11T00:24:30.775Z,7.85
2019-02-11T00:27:00.100Z,4.65
2019-02-11T00:29:29.348Z,10.85
2019-02-11T00:31:58.524Z,10.15
2019-02-11T00:34:27.906Z,15.20
2019-02-11T00:36:57.155Z,12.03
2019-02-11T00:39:26.476Z,5.53
2019-02-11T00:41:55.832Z,17.00
2019-02-11T00:44:25.001Z,8.70
2019-02-11T00:46:54.309Z,5.85
2019-02-11T00:49:23.512Z,11.05
2019-02-11T00:51:52.781Z,10.45
2019-02-11T00:54:22.179Z,13.20
2019-02-11T00:56:51.508Z,5.00
2019-02-11T00:59:21.098Z,12.50
2019-02-11T01:01:50.592Z,15.88
2019-02-11T01:04:20.088Z,4.45
2019-02-11T01:06:49.239Z,9.48
2019-02-11T01:09:18.854Z,9.13
2019-02-11T01:11:48.182Z,8.88
2019-02-11T01:14:17.345Z,3.77
2019-02-11T01:16:46.590Z,9.33
2019-02-11T01:19:15.869Z,8.95
2019-02-11T01:21:45.119Z,10.25
2019-02-11T01:24:14.354Z,8.35
2019-02-11T01:26:43.699Z,7.10
2019-02-11T01:29:12.862Z,6.87
2019-02-11T01:31:42.237Z,12.60
2019-02-11T01:34:11.539Z,7.42
2019-02-11T01:36:40.778Z,13.00
2019-02-11T01:39:10.047Z,9.83
2019-02-11T01:41:39.341Z,5.37
2019-02-11T01:44:08.515Z,6.90
2019-02-11T01:46:37.830Z,7.60
2019-02-11T01:49:07.209Z,5.83
2019-02-11T01:51:36.520Z,6.95
2019-02-11T01:54:06.745Z,3.80
2019-02-11T01:56:36.014Z,11.68
2019-02-11T01:59:05.268Z,15.98
2019-02-11T02:01:34.574Z,10.80
2019-02-11T02:04:03.927Z,6.08
2019-02-11T02:06:33.188Z,20.23
2019-02-11T02:09:04.014Z,6.53
2019-02-11T02:11:33.223Z,9.90
2019-02-11T02:14:02.413Z,6.03
2019-02-11T02:16:31.656Z,6.00
2019-02-11T02:19:00.837Z,8.25
2019-02-11T02:21:29.992Z,7.45
2019-02-11T02:23:59.238Z,19.35
2019-02-11T02:26:28.772Z,15.80
2019-02-11T02:28:58.005Z,3.17
2019-02-11T02:31:27.252Z,9.23
2019-02-11T02:33:56.467Z,12.25
2019-02-11T02:36:25.714Z,13.10
2019-02-11T02:38:54.954Z,11.93
2019-02-11T02:41:24.297Z,13.48
2019-02-11T02:43:55.674Z,9.28
2019-02-11T02:46:24.433Z,14.30
2019-02-11T02:48:53.821Z,9.00
2019-02-11T02:51:23.067Z,6.42
2019-02-11T02:53:52.318Z,6.90
2019-02-11T02:56:21.677Z,15.32
2019-02-11T02:58:50.928Z,14.78
2019-02-11T03:01:20.170Z,5.75
2019-02-11T03:03:49.538Z,6.12
2019-02-11T03:06:18.687Z,19.82
2019-02-11T03:08:47.891Z,11.25
2019-02-11T03:11:17.085Z,11.22
2019-02-11T03:13:46.326Z,5.15
2019-02-11T03:16:15.640Z,12.15
2019-02-11T03:18:44.825Z,9.83
2019-02-11T03:21:14.073Z,7.65
2019-02-11T03:23:43.310Z,9.48
2019-02-11T03:26:12.519Z,7.95
2019-02-11T03:28:41.762Z,12.13
2019-02-11T03:31:11.014Z,9.58
2019-02-11T03:33:40.633Z,8.25
2019-02-11T03:36:09.864Z,20.55
2019-02-11T03:38:39.099Z,2.27
2019-02-11T03:41:08.438Z,11.78
2019-02-11T03:43:37.706Z,22.67
2019-02-11T03:46:06.941Z,11.53
2019-02-11T03:48:36.452Z,12.03
2019-02-11T03:51:05.689Z,5.15
2019-02-11T03:53:34.951Z,14.58
2019-02-11T03:56:04.312Z,14.70
2019-02-11T03:58:33.608Z,8.48
2019-02-11T04:01:02.815Z,11.63
2019-02-11T04:03:32.250Z,16.40
2019-02-11T04:06:01.611Z,9.60
2019-02-11T04:08:30.846Z,10.03
2019-02-11T04:11:00.200Z,14.75
2019-02-11T04:13:29.348Z,7.10
2019-02-11T04:15:58.596Z,10.35
2019-02-11T04:18:27.891Z,12.40
2019-02-11T04:20:57.209Z,11.18
2019-02-11T04:23:26.444Z,13.50
2019-02-11T04:25:55.718Z,10.23
2019-02-11T04:28:24.961Z,7.22
2019-02-11T04:30:54.286Z,11.68
2019-02-11T04:33:23.586Z,23.83
2019-02-11T04:35:52.912Z,23.15
2019-02-11T04:38:22.156Z,16.12
2019-02-11T04:40:51.500Z,9.03
2019-02-11T04:43:20.814Z,12.47
2019-02-11T04:45:50.121Z,10.75
2019-02-11T04:48:19.414Z,4.92
2019-02-11T04:50:48.575Z,12.05
2019-02-11T04:53:17.900Z,16.70
2019-02-11T04:55:47.268Z,13.20
2019-02-11T04:58:16.588Z,13.08
2019-02-11T05:00:45.756Z,18.15
2019-02-11T05:03:15.034Z,12.63
2019-02-11T05:05:44.287Z,7.37
2019-02-11T05:08:13.528Z,12.03
2019-02-11T05:10:42.870Z,5.00
2019-02-11T05:13:12.042Z,6.28
2019-02-11T05:15:41.282Z,13.43
2019-02-11T05:18:10.638Z,7.60
2019-02-11T05:20:39.814Z,17.70
2019-02-11T05:23:09.131Z,9.63
2019-02-11T05:25:38.883Z,4.67
2019-02-11T05:28:08.122Z,7.10
2019-02-11T05:30:37.335Z,15.40
2019-02-11T05:33:06.546Z,13.75
2019-02-11T05:35:35.777Z,20.05
2019-02-11T05:38:05.111Z,9.83
2019-02-11T05:40:34.513Z,7.62
2019-02-11T05:43:03.761Z,4.95
2019-02-11T05:45:33.074Z,4.92
2019-02-11T05:48:02.289Z,14.40
2019-02-11T05:50:31.546Z,10.85
2019-02-11T05:53:00.774Z,20.48
2019-02-11T05:55:29.972Z,7.80
2019-02-11T05:57:59.293Z,8.45
2019-02-11T06:00:28.984Z,15.55
2019-02-11T06:02:58.348Z,8.80
2019-02-11T06:05:27.591Z,8.45
2019-02-11T06:07:56.769Z,6.33
2019-02-11T06:10:26.116Z,19.12
2019-02-11T06:12:55.364Z,16.25
2019-02-11T06:15:24.535Z,7.50
2019-02-11T06:17:54.222Z,8.75
2019-02-11T06:20:23.472Z,8.83
2019-02-11T06:22:52.792Z,15.32
2019-02-11T06:25:22.191Z,15.98
2019-02-11T06:27:51.491Z,12.88
2019-02-11T06:30:20.830Z,8.60
2019-02-11T06:32:50.104Z,12.68
2019-02-11T06:35:19.359Z,19.20
2019-02-11T06:37:48.621Z,8.58
2019-02-11T06:40:17.883Z,9.48
2019-02-11T06:42:47.445Z,14.58
2019-02-11T06:45:16.690Z,11.95
2019-02-11T06:47:45.985Z,10.80
2019-02-11T06:50:15.200Z,9.25
2019-02-11T06:52:44.519Z,4.17
2019-02-11T06:55:13.821Z,19.60
2019-02-11T06:57:43.163Z,10.25
2019-02-11T07:00:13.237Z,12.35
2019-02-11T07:02:44.268Z,5.58
2019-02-11T07:05:13.890Z,15.75
2019-02-11T07:07:43.245Z,5.92
2019-02-11T07:10:12.585Z,6.92
2019-02-11T07:12:41.877Z,9.43
2019-02-11T07:15:12.208Z,7.28
2019-02-11T07:17:41.483Z,15.38
2019-02-11T07:20:11.028Z,3.92
2019-02-11T07:22:40.204Z,10.82
2019-02-11T07:25:10.415Z,7.97
2019-02-11T07:27:39.574Z,11.08
2019-02-11T07:30:10.012Z,20.88
2019-02-11T07:32:39.297Z,6.85
2019-02-11T07:35:08.727Z,3.58
2019-02-11T07:37:38.071Z,15.10
2019-02-11T07:40:08.148Z,8.90
2019-02-11T07:42:45.266Z,11.43
2019-02-11T07:45:29.930Z,10.05
2019-02-11T07:47:54.069Z,13.20
2019-02-11T07:50:23.398Z,3.90
2019-02-11T07:52:52.611Z,15.53
2019-02-11T07:55:21.877Z,6.62
2019-02-11T07:57:51.189Z,9.58
2019-02-11T08:00:20.542Z,9.33
2019-02-11T08:02:49.875Z,7.37
2019-02-11T08:05:19.125Z,23.87
2019-02-11T08:07:48.402Z,20.40
2019-02-11T08:10:17.733Z,15.43
2019-02-11T08:12:47.253Z,10.53
2019-02-11T08:15:16.608Z,9.10
2019-02-11T08:17:46.894Z,18.90
2019-02-11T08:20:16.634Z,7.78
2019-02-11T08:22:46.012Z,3.17
2019-02-11T08:25:15.274Z,8.18
2019-02-11T08:27:44.537Z,9.33
2019-02-11T08:30:13.739Z,10.68
2019-02-11T08:32:43.043Z,9.80
2019-02-11T08:35:12.244Z,5.90
2019-02-11T08:37:41.581Z,7.35
2019-02-11T08:40:11.337Z,10.43
2019-02-11T08:42:40.592Z,7.15
2019-02-11T08:45:10.389Z,9.65
2019-02-11T08:47:39.626Z,9.23
2019-02-11T08:50:08.948Z,18.37
2019-02-11T08:52:38.762Z,10.88
2019-02-11T08:55:08.297Z,13.32
2019-02-11T08:57:37.503Z,8.35
2019-02-11T09:00:07.445Z,18.20
2019-02-11T09:02:37.105Z,11.73
2019-02-11T09:05:07.214Z,11.45
2019-02-11T09:07:36.493Z,13.68
2019-02-11T09:10:07.333Z,8.40
2019-02-11T09:12:36.669Z,19.80
2019-02-11T09:15:07.068Z,9.70
2019-02-11T09:17:36.319Z,18.15
2019-02-11T09:20:06.622Z,10.28
2019-02-11T09:22:35.977Z,16.80
2019-02-11T09:25:06.746Z,15.43
2019-02-11T09:27:36.000Z,11.73
2019-02-11T09:30:07.276Z,11.55
2019-02-11T09:32:36.579Z,10.55
2019-02-11T09:35:06.401Z,13.55
2019-02-11T09:37:36.782Z,9.90
2019-02-11T09:40:07.236Z,9.28
2019-02-11T09:42:36.486Z,13.20
2019-02-11T09:45:08.643Z,5.50
2019-02-11T09:47:37.952Z,13.32
2019-02-11T09:50:18.943Z,6.53
2019-02-11T09:52:48.200Z,15.03
2019-02-11T09:55:23.285Z,14.75
2019-02-11T09:57:52.606Z,11.53
2019-02-11T10:00:22.214Z,5.75
2019-02-11T10:02:51.502Z,18.90
2019-02-11T10:05:20.738Z,14.75
2019-02-11T10:07:49.996Z,16.00
2019-02-11T10:10:19.300Z,19.32
2019-02-11T10:12:48.647Z,20.12
2019-02-11T10:15:17.970Z,11.63
2019-02-11T10:17:47.217Z,7.22
2019-02-11T10:20:16.666Z,12.30
2019-02-11T10:22:45.894Z,6.15
2019-02-11T10:25:17.751Z,14.20
2019-02-11T10:27:46.922Z,17.02
2019-02-11T10:30:16.130Z,13.80
2019-02-11T10:32:45.480Z,7.30
2019-02-11T10:35:15.881Z,13.40
2019-02-11T10:37:45.147Z,18.90
2019-02-11T10:40:14.809Z,23.32
2019-02-11T10:42:44.146Z,13.70
2019-02-11T10:45:14.296Z,10.08
2019-02-11T10:47:44.465Z,10.32
2019-02-11T10:50:15.086Z,14.70
2019-02-11T10:52:44.402Z,7.70
2019-02-11T10:55:15.588Z,11.22
2019-02-11T10:57:45.028Z,6.65
2019-02-11T11:00:17.134Z,7.25
2019-02-11T11:02:46.400Z,10.80
2019-02-11T11:05:16.279Z,13.68
2019-02-11T11:07:45.945Z,16.42
2019-02-11T11:10:24.512Z,14.07
2019-02-11T11:12:53.670Z,18.52
2019-02-11T11:15:23.612Z,10.63
2019-02-11T11:17:52.882Z,15.25
2019-02-11T11:20:22.251Z,7.72
2019-02-11T11:22:51.514Z,10.72
2019-02-11T11:25:21.198Z,13.28
2019-02-11T11:27:50.463Z,18.75
2019-02-11T11:30:20.017Z,10.93
2019-02-11T11:32:49.356Z,10.55
2019-02-11T11:35:18.696Z,11.25
2019-02-11T11:37:48.021Z,14.05
2019-02-11T11:40:18.092Z,8.83
2019-02-11T11:42:47.820Z,14.90
2019-02-11T11:45:18.034Z,13.15
2019-02-11T11:47:47.815Z,8.40
2019-02-11T11:50:17.803Z,15.58
2019-02-11T11:52:47.123Z,18.00
2019-02-11T11:55:17.483Z,8.63
2019-02-11T11:57:46.720Z,11.05
2019-02-11T12:00:22.625Z,10.48
2019-02-11T12:03:01.540Z,9.18
2019-02-11T12:05:23.582Z,20.15
2019-02-11T12:07:52.841Z,9.83
2019-02-11T12:10:22.147Z,7.20
2019-02-11T12:12:51.386Z,9.30
2019-02-11T12:15:22.588Z,6.75
2019-02-11T12:17:52.375Z,12.03
2019-02-11T12:20:21.636Z,5.58
2019-02-11T12:22:51.037Z,8.00
2019-02-11T12:25:20.342Z,6.17
2019-02-11T12:27:49.556Z,6.67
2019-02-11T12:30:24.025Z,9.88
2019-02-11T12:32:55.468Z,7.53
2019-02-11T12:35:24.414Z,4.17
2019-02-11T12:37:53.779Z,3.35
2019-02-11T12:40:23.098Z,6.80
2019-02-11T12:42:53.420Z,5.65
2019-02-11T12:45:23.894Z,5.58
2019-02-11T12:47:53.280Z,6.78
2019-02-11T12:50:22.814Z,3.50
2019-02-11T12:52:52.095Z,3.95
2019-02-11T12:55:21.437Z,7.62
2019-02-11T12:57:50.956Z,7.62
2019-02-11T13:00:21.634Z,4.20
2019-02-11T13:02:50.979Z,10.85
2019-02-11T13:05:22.853Z,4.20
2019-02-11T13:07:51.324Z,5.03
2019-02-11T13:10:21.162Z,7.70
2019-02-11T13:12:50.434Z,4.65
2019-02-11T13:15:59.291Z,7.62
2019-02-11T13:17:50.946Z,15.25
2019-02-11T13:20:20.600Z,9.08
2019-02-11T13:22:49.877Z,5.62
2019-02-11T13:25:19.208Z,7.08
2019-02-11T13:27:48.554Z,2.87
2019-02-11T13:30:19.210Z,3.83
2019-02-11T13:32:48.438Z,3.05
2019-02-11T13:35:17.797Z,5.40
2019-02-11T13:37:47.275Z,3.72
2019-02-11T13:40:16.939Z,3.15
2019-02-11T13:42:46.208Z,12.85
2019-02-11T13:45:17.461Z,6.42
2019-02-11T13:47:57.755Z,5.08
2019-02-11T13:50:20.633Z,7.85
2019-02-11T13:52:50.662Z,12.90
2019-02-11T13:55:19.978Z,6.60
2019-02-11T13:57:49.779Z,7.08
2019-02-11T14:00:24.407Z,2.87
2019-02-11T14:02:55.247Z,3.85
2019-02-11T14:05:24.613Z,12.37
2019-02-11T14:07:54.274Z,6.78
2019-02-11T14:10:23.631Z,3.60
2019-02-11T14:12:53.216Z,5.42
2019-02-11T14:15:22.461Z,4.53
2019-02-11T14:18:09.335Z,7.03
2019-02-11T14:20:24.810Z,11.45
2019-02-11T14:22:54.094Z,7.58
2019-02-11T14:25:41.009Z,3.55
2019-02-11T14:27:54.205Z,4.50
2019-02-11T14:30:23.626Z,10.43
2019-02-11T14:32:52.906Z,13.45
2019-02-11T14:35:22.144Z,4.03
2019-02-11T14:37:51.564Z,4.87
2019-02-11T14:40:20.869Z,8.93
2019-02-11T14:42:50.132Z,5.15
2019-02-11T14:45:19.514Z,4.65
2019-02-11T14:47:48.895Z,12.07
2019-02-11T14:50:18.213Z,13.98
2019-02-11T14:52:47.468Z,10.48
2019-02-11T14:55:16.648Z,8.78
2019-02-11T14:57:45.887Z,16.05
2019-02-11T15:00:21.480Z,6.70
2019-02-11T15:02:50.919Z,8.78
2019-02-11T15:05:20.458Z,12.13
2019-02-11T15:07:50.224Z,14.25
2019-02-11T15:10:19.840Z,5.42
2019-02-11T15:12:51.045Z,8.73
2019-02-11T15:15:20.580Z,8.73
2019-02-11T15:17:50.022Z,5.03
2019-02-11T15:20:19.263Z,3.20
2019-02-11T15:22:48.791Z,6.42
2019-02-11T15:25:18.195Z,4.53
2019-02-11T15:27:47.467Z,3.50
2019-02-11T15:30:18.549Z,12.73
2019-02-11T15:32:47.860Z,4.85
2019-02-11T15:35:17.245Z,8.50
2019-02-11T15:37:46.610Z,8.85
2019-02-11T15:40:18.237Z,8.08
2019-02-11T15:42:47.472Z,11.18
2019-02-11T15:45:16.835Z,13.10
2019-02-11T15:47:46.471Z,8.80
2019-02-11T15:50:16.435Z,12.05
2019-02-11T15:52:45.806Z,14.43
2019-02-11T15:55:16.569Z,11.20
2019-02-11T15:57:45.883Z,5.15
2019-02-11T16:00:17.319Z,6.08
2019-02-11T16:02:47.016Z,4.83
2019-02-11T16:05:16.878Z,13.03
2019-02-11T16:07:46.562Z,11.22
2019-02-11T16:10:18.404Z,12.60
2019-02-11T16:12:47.752Z,14.70
2019-02-11T16:15:16.962Z,8.53
2019-02-11T16:17:46.206Z,3.27
2019-02-11T16:20:15.865Z,2.15
2019-02-11T16:22:45.221Z,12.23
2019-02-11T16:25:14.817Z,6.15
2019-02-11T16:27:44.170Z,10.40
2019-02-11T16:30:17.821Z,7.30
2019-02-11T16:32:47.173Z,12.68
2019-02-11T16:35:16.660Z,11.03
2019-02-11T16:37:46.173Z,7.37
2019-02-11T16:40:18.188Z,3.52
2019-02-11T16:42:47.431Z,6.10
2019-02-11T16:45:16.767Z,15.32
2019-02-11T16:47:46.070Z,6.97
2019-02-11T16:50:15.308Z,13.30
2019-02-11T16:52:44.847Z,15.10
2019-02-11T16:55:14.318Z,9.55
2019-02-11T16:57:43.643Z,15.23
2019-02-11T17:00:15.004Z,9.28
2019-02-11T17:02:44.332Z,10.45
2019-02-11T17:05:13.877Z,11.35
2019-02-11T17:07:43.417Z,12.30
2019-02-11T17:10:13.311Z,7.78
2019-02-11T17:12:42.798Z,22.50
2019-02-11T17:15:14.083Z,18.32
2019-02-11T17:17:43.403Z,20.62
2019-02-11T17:20:13.568Z,10.65
2019-02-11T17:22:43.168Z,5.20
2019-02-11T17:25:13.088Z,17.10
2019-02-11T17:27:42.356Z,21.70
2019-02-11T17:30:14.652Z,23.65
2019-02-11T17:32:43.909Z,8.55
2019-02-11T17:35:13.342Z,16.05
2019-02-11T17:37:42.686Z,22.58
2019-02-11T17:40:12.872Z,12.18
2019-02-11T17:42:42.205Z,30.60
2019-02-11T17:45:16.797Z,10.45
2019-02-11T17:47:46.337Z,6.47
2019-02-11T17:50:15.619Z,7.15
2019-02-11T17:52:44.852Z,7.65
2019-02-11T17:55:14.466Z,11.33
2019-02-11T17:57:43.713Z,18.42
2019-02-11T18:00:26.162Z,12.90
2019-02-11T18:02:55.403Z,3.90
2019-02-11T18:05:24.750Z,18.00
2019-02-11T18:07:54.040Z,6.22
2019-02-11T18:10:23.300Z,18.00
2019-02-11T18:12:52.609Z,15.32
2019-02-11T18:15:21.949Z,17.25
2019-02-11T18:17:51.273Z,6.17
2019-02-11T18:20:20.443Z,15.38
2019-02-11T18:22:49.657Z,10.23
2019-02-11T18:25:18.979Z,10.35
2019-02-11T18:27:48.222Z,7.65
2019-02-11T18:30:17.999Z,14.98
2019-02-11T18:32:47.345Z,13.20
2019-02-11T18:35:16.840Z,10.35
2019-02-11T18:37:46.105Z,10.18
2019-02-11T18:40:15.440Z,10.28
2019-02-11T18:42:44.684Z,7.17
2019-02-11T18:45:14.680Z,16.42
2019-02-11T18:47:43.952Z,13.40
2019-02-11T18:50:14.148Z,12.95
2019-02-11T18:52:43.620Z,12.90
2019-02-11T18:55:13.797Z,11.40
2019-02-11T18:57:43.074Z,11.33
2019-02-11T19:00:15.392Z,8.90
2019-02-11T19:02:45.249Z,10.03
2019-02-11T19:05:15.465Z,7.87
2019-02-11T19:07:44.904Z,12.10
2019-02-11T19:10:14.437Z,10.78
2019-02-11T19:12:43.769Z,15.70
2019-02-11T19:15:13.877Z,44.45
2019-02-11T19:17:43.295Z,24.37
2019-02-11T19:20:13.672Z,27.25
2019-02-11T19:22:42.893Z,25.20
2019-02-11T19:25:12.213Z,28.70
2019-02-11T19:27:41.552Z,24.10
2019-02-11T19:30:14.010Z,23.98
2019-02-11T19:32:43.335Z,26.73
2019-02-11T19:35:12.505Z,18.75
2019-02-11T19:37:41.883Z,31.02
2019-02-11T19:40:12.315Z,26.85
2019-02-11T19:42:41.628Z,39.30
2019-02-11T19:45:13.074Z,29.80
2019-02-11T19:47:42.612Z,30.80
2019-02-11T19:50:13.488Z,24.25
2019-02-11T19:52:42.890Z,32.03
2019-02-11T19:55:12.591Z,18.45
2019-02-11T19:57:41.913Z,24.75
2019-02-11T20:00:17.428Z,28.35
2019-02-11T20:02:46.973Z,27.22
2019-02-11T20:05:16.581Z,39.40
2019-02-11T20:07:45.965Z,31.60
2019-02-11T20:10:15.846Z,44.13
2019-02-11T20:12:45.096Z,26.82
2019-02-11T20:15:16.902Z,20.88
2019-02-11T20:17:46.132Z,13.70
2019-02-11T20:20:17.680Z,29.48
2019-02-11T20:22:47.016Z,27.67
2019-02-11T20:25:16.274Z,25.90
2019-02-11T20:27:45.538Z,16.93
2019-02-11T20:30:17.361Z,21.50
2019-02-11T20:32:46.658Z,28.02
2019-02-11T20:35:15.985Z,27.20
2019-02-11T20:37:45.339Z,19.92
2019-02-11T20:40:16.620Z,23.55
2019-02-11T20:42:45.867Z,27.93
2019-02-11T20:45:19.816Z,26.37
2019-02-11T20:47:48.774Z,38.48
2019-02-11T20:50:18.127Z,38.63
2019-02-11T20:52:50.583Z,35.23
2019-02-11T20:55:19.917Z,31.40
2019-02-11T20:57:51.555Z,35.25
2019-02-11T21:00:22.683Z,44.33
2019-02-11T21:02:52.024Z,18.02
2019-02-11T21:05:21.600Z,27.85
2019-02-11T21:07:50.930Z,32.50
2019-02-11T21:10:21.658Z,14.58
2019-02-11T21:12:51.228Z,19.60
2019-02-11T21:15:20.572Z,34.00
2019-02-11T21:17:49.865Z,15.88
2019-02-11T21:20:31.353Z,18.52
2019-02-11T21:23:00.643Z,30.70
2019-02-11T21:25:29.990Z,27.10
2019-02-11T21:27:59.304Z,25.82
2019-02-11T21:30:28.624Z,16.97
2019-02-11T21:32:57.828Z,22.90
2019-02-11T21:35:27.213Z,16.40
2019-02-11T21:37:56.531Z,19.23
2019-02-11T21:40:25.861Z,25.85
2019-02-11T21:42:55.194Z,15.38
2019-02-11T21:45:24.449Z,29.15
2019-02-11T21:47:53.778Z,22.25
2019-02-11T21:50:26.622Z,20.37
2019-02-11T21:52:54.184Z,25.10
2019-02-11T21:55:23.400Z,23.12
2019-02-11T21:57:52.800Z,24.67
2019-02-11T22:00:22.085Z,17.75
2019-02-11T22:02:51.406Z,20.92
2019-02-11T22:05:20.675Z,30.35
2019-02-11T22:07:50.141Z,16.80
2019-02-11T22:10:19.403Z,19.85
2019-02-11T22:12:48.770Z,30.82
2019-02-11T22:15:18.111Z,18.37
2019-02-11T22:17:47.656Z,15.53
2019-02-11T22:20:18.051Z,34.25
2019-02-11T22:22:47.369Z,23.42
2019-02-11T22:25:16.672Z,17.65
2019-02-11T22:27:46.016Z,30.85
2019-02-11T22:30:17.592Z,21.02
2019-02-11T22:32:46.921Z,31.45
2019-02-11T22:35:17.923Z,20.70
2019-02-11T22:37:47.967Z,26.85
2019-02-11T22:40:17.226Z,20.48
2019-02-11T22:42:46.609Z,15.98
2019-02-11T22:45:18.001Z,18.85
2019-02-11T22:47:47.264Z,20.45
2019-02-11T22:50:16.529Z,32.25
2019-02-11T22:52:45.852Z,26.40
2019-02-11T22:55:15.488Z,28.57
2019-02-11T22:57:44.822Z,24.85
2019-02-11T23:00:39.927Z,18.90
2019-02-11T23:03:09.170Z,17.05
2019-02-11T23:05:38.807Z,19.95
2019-02-11T23:08:08.068Z,18.60
2019-02-11T23:10:37.784Z,22.90
2019-02-11T23:13:07.045Z,32.88
2019-02-11T23:15:36.483Z,27.05
2019-02-11T23:18:06.305Z,20.55
2019-02-11T23:20:35.620Z,20.35
2019-02-11T23:23:04.961Z,18.32
2019-02-11T23:25:34.485Z,38.42
2019-02-11T23:28:03.685Z,18.73
2019-02-11T23:30:33.018Z,15.85
2019-02-11T23:33:02.288Z,26.60
2019-02-11T23:35:31.474Z,30.60
2019-02-11T23:38:00.813Z,39.70
2019-02-11T23:40:30.240Z,24.65
2019-02-11T23:42:59.964Z,29.48
2019-02-11T23:45:29.376Z,36.45
2019-02-11T23:47:59.052Z,24.40
2019-02-11T23:50:28.387Z,31.10
2019-02-11T23:52:57.715Z,25.43
2019-02-11T23:55:27.352Z,25.72
2019-02-11T23:57:56.683Z,32.42
